createdAt,value
2019-03-10T00:01:57.208Z,2.23
2019-03-10T00:04:26.434Z,2.50
2019-03-10T00:06:55.369Z,1.53
2019-03-10T00:09:23.988Z,2.23
2019-03-10T00:11:53.214Z,2.03
2019-03-10T00:14:21.911Z,2.40
2019-03-10T00:16:50.787Z,2.23
2019-03-10T00:19:19.416Z,1.90
2019-03-10T00:21:48.162Z,2.47
2019-03-10T00:24:17.163Z,2.40
2019-03-10T00:26:46.360Z,2.83
2019-03-10T00:29:15.356Z,2.60
2019-03-10T00:31:44.269Z,2.00
2019-03-10T00:34:12.919Z,2.83
2019-03-10T00:36:42.073Z,2.43
2019-03-10T00:39:46.432Z,2.17
2019-03-10T00:43:03.269Z,2.17
2019-03-10T00:46:02.969Z,2.27
2019-03-10T00:49:06.664Z,1.57
2019-03-10T00:51:58.411Z,2.00
2019-03-10T00:54:27.303Z,2.40
2019-03-10T00:56:56.393Z,2.60
2019-03-10T00:59:25.904Z,2.47
2019-03-10T01:01:54.594Z,1.63
2019-03-10T01:04:23.643Z,2.17
2019-03-10T01:06:52.789Z,2.90
2019-03-10T01:09:21.448Z,2.20
2019-03-10T01:11:50.128Z,2.37
2019-03-10T01:14:19.357Z,1.77
2019-03-10T01:16:48.240Z,1.83
2019-03-10T01:19:17.901Z,3.23
2019-03-10T01:21:49.210Z,2.73
2019-03-10T01:24:18.294Z,1.33
2019-03-10T01:26:46.959Z,2.27
2019-03-10T01:29:17.612Z,2.10
2019-03-10T01:32:17.025Z,2.63
2019-03-10T01:34:54.811Z,1.67
2019-03-10T01:37:23.436Z,1.93
2019-03-10T01:39:52.405Z,2.97
2019-03-10T01:42:21.111Z,2.50
2019-03-10T01:44:49.713Z,2.37
2019-03-10T01:47:18.346Z,1.97
2019-03-10T01:49:47.347Z,2.90
2019-03-10T01:52:16.347Z,2.97
2019-03-10T01:54:45.891Z,2.67
2019-03-10T01:57:14.849Z,2.13
2019-03-10T01:59:43.939Z,2.50
2019-03-10T02:02:12.672Z,2.90
2019-03-10T02:04:41.621Z,2.13
2019-03-10T02:07:10.917Z,2.37
2019-03-10T02:09:39.808Z,2.87
2019-03-10T02:12:08.445Z,1.97
2019-03-10T02:14:37.078Z,2.03
2019-03-10T02:17:06.074Z,2.63
2019-03-10T02:19:34.749Z,2.80
2019-03-10T02:22:03.960Z,2.67
2019-03-10T02:24:32.954Z,2.50
2019-03-10T02:27:02.153Z,2.40
2019-03-10T02:29:30.836Z,2.60
2019-03-10T02:31:59.515Z,2.77
2019-03-10T02:34:28.157Z,3.20
2019-03-10T02:36:57.114Z,2.83
2019-03-10T02:39:25.750Z,3.87
2019-03-10T02:41:54.469Z,2.37
2019-03-10T02:44:23.478Z,2.60
2019-03-10T02:46:52.112Z,2.80
2019-03-10T02:49:20.743Z,2.53
2019-03-10T02:51:50.044Z,3.07
2019-03-10T02:54:21.720Z,2.43
2019-03-10T02:56:50.348Z,2.50
2019-03-10T02:59:19.280Z,3.37
2019-03-10T03:01:48.577Z,3.10
2019-03-10T03:04:17.231Z,4.33
2019-03-10T03:06:47.033Z,4.03
2019-03-10T03:09:16.282Z,2.67
2019-03-10T03:11:45.574Z,2.00
2019-03-10T03:14:14.780Z,3.73
2019-03-10T03:16:43.487Z,3.20
2019-03-10T03:19:12.482Z,2.10
2019-03-10T03:21:43.553Z,2.57
2019-03-10T03:24:12.188Z,3.97
2019-03-10T03:26:40.826Z,3.33
2019-03-10T03:29:09.555Z,3.50
2019-03-10T03:31:38.249Z,3.90
2019-03-10T03:34:07.267Z,2.70
2019-03-10T03:36:37.530Z,3.17
2019-03-10T03:39:19.456Z,2.60
2019-03-10T03:41:48.770Z,2.40
2019-03-10T03:44:17.456Z,3.77
2019-03-10T03:46:46.453Z,2.27
2019-03-10T03:49:15.456Z,3.77
2019-03-10T03:51:44.074Z,2.63
2019-03-10T03:54:12.732Z,2.77
2019-03-10T03:56:42.004Z,3.33
2019-03-10T03:59:10.903Z,4.27
2019-03-10T04:01:52.535Z,2.97
2019-03-10T04:04:21.223Z,2.93
2019-03-10T04:06:49.906Z,3.20
2019-03-10T04:09:18.596Z,3.30
2019-03-10T04:11:47.234Z,2.20
2019-03-10T04:14:16.439Z,3.33
2019-03-10T04:16:45.092Z,4.07
2019-03-10T04:19:14.312Z,1.87
2019-03-10T04:21:43.340Z,4.37
2019-03-10T04:24:12.222Z,3.90
2019-03-10T04:26:41.201Z,3.33
2019-03-10T04:29:10.290Z,2.70
2019-03-10T04:31:39.290Z,2.40
2019-03-10T04:34:08.277Z,2.50
2019-03-10T04:36:37.896Z,2.77
2019-03-10T04:39:07.435Z,3.03
2019-03-10T04:41:36.077Z,3.73
2019-03-10T04:44:04.734Z,2.57
2019-03-10T04:46:33.390Z,3.07
2019-03-10T04:49:02.038Z,2.50
2019-03-10T04:51:31.039Z,3.07
2019-03-10T04:53:59.653Z,2.65
2019-03-10T04:57:03.717Z,2.30
2019-03-10T04:59:32.635Z,2.93
2019-03-10T05:02:01.615Z,3.63
2019-03-10T05:04:31.650Z,2.90
2019-03-10T05:07:00.550Z,3.80
2019-03-10T05:09:29.518Z,3.53
2019-03-10T05:11:58.147Z,2.77
2019-03-10T05:14:27.097Z,3.37
2019-03-10T05:16:55.741Z,3.93
2019-03-10T05:19:24.370Z,2.90
2019-03-10T05:21:53.270Z,2.73
2019-03-10T05:24:22.553Z,2.60
2019-03-10T05:26:51.230Z,2.10
2019-03-10T05:29:19.863Z,2.10
2019-03-10T05:31:48.523Z,1.70
2019-03-10T05:34:17.505Z,1.70
2019-03-10T05:36:46.399Z,1.17
2019-03-10T05:39:15.288Z,1.90
2019-03-10T05:41:44.189Z,1.50
2019-03-10T05:44:12.852Z,1.33
2019-03-10T05:46:42.164Z,1.87
2019-03-10T05:49:11.192Z,1.60
2019-03-10T05:51:40.774Z,2.07
2019-03-10T05:54:09.585Z,1.47
2019-03-10T05:56:38.757Z,1.90
2019-03-10T05:59:07.754Z,1.80
2019-03-10T06:01:36.743Z,2.77
2019-03-10T06:04:08.548Z,2.27
2019-03-10T06:06:37.903Z,2.13
2019-03-10T06:09:07.413Z,2.50
2019-03-10T06:11:36.405Z,3.40
2019-03-10T06:14:05.399Z,3.30
2019-03-10T06:16:34.044Z,4.47
2019-03-10T06:19:02.980Z,2.57
2019-03-10T06:21:32.309Z,2.73
2019-03-10T06:24:00.957Z,2.80
2019-03-10T06:26:29.958Z,2.33
2019-03-10T06:28:59.262Z,4.17
2019-03-10T06:31:27.913Z,3.13
2019-03-10T06:33:56.842Z,2.30
2019-03-10T06:36:25.955Z,4.03
2019-03-10T06:38:55.406Z,4.63
2019-03-10T06:41:24.951Z,3.83
2019-03-10T06:43:53.962Z,2.53
2019-03-10T06:46:22.955Z,3.83
2019-03-10T06:48:52.241Z,3.13
2019-03-10T06:51:21.229Z,3.37
2019-03-10T06:53:50.245Z,4.27
2019-03-10T06:56:19.202Z,3.03
2019-03-10T06:58:47.902Z,2.47
2019-03-10T07:01:16.802Z,2.93
2019-03-10T07:03:45.785Z,2.80
2019-03-10T07:06:14.462Z,3.20
2019-03-10T07:08:44.804Z,3.23
2019-03-10T07:11:14.097Z,4.20
2019-03-10T07:13:43.208Z,3.00
2019-03-10T07:16:11.911Z,3.13
2019-03-10T07:18:43.355Z,3.70
2019-03-10T07:21:12.154Z,3.80
2019-03-10T07:23:41.528Z,3.10
2019-03-10T07:26:10.524Z,4.20
2019-03-10T07:28:44.155Z,3.30
2019-03-10T07:31:29.480Z,2.27
2019-03-10T07:34:17.422Z,2.93
2019-03-10T07:37:04.666Z,3.10
2019-03-10T07:39:43.955Z,2.97
2019-03-10T07:42:31.583Z,3.40
2019-03-10T07:45:18.641Z,2.97
2019-03-10T07:47:55.679Z,2.10
2019-03-10T07:50:40.762Z,2.90
2019-03-10T07:53:36.237Z,3.10
2019-03-10T07:56:11.755Z,3.17
2019-03-10T07:59:00.306Z,2.40
2019-03-10T08:01:37.286Z,2.70
2019-03-10T08:04:31.473Z,2.70
2019-03-10T08:07:25.254Z,3.37
2019-03-10T08:10:12.473Z,2.77
2019-03-10T08:13:15.572Z,2.27
2019-03-10T08:16:02.052Z,2.20
2019-03-10T08:18:50.318Z,2.80
2019-03-10T08:21:34.462Z,2.43
2019-03-10T08:24:09.881Z,2.83
2019-03-10T08:26:58.959Z,2.63
2019-03-10T08:29:56.123Z,2.60
2019-03-10T08:32:43.850Z,3.10
2019-03-10T08:35:18.289Z,2.20
2019-03-10T08:38:05.237Z,2.53
2019-03-10T08:40:56.106Z,2.53
2019-03-10T08:43:37.845Z,2.40
2019-03-10T08:46:20.200Z,2.37
2019-03-10T08:48:56.715Z,1.30
2019-03-10T08:51:43.584Z,3.10
2019-03-10T08:54:17.492Z,3.20
2019-03-10T08:57:04.778Z,2.10
2019-03-10T08:59:48.767Z,3.47
2019-03-10T09:02:35.981Z,2.77
2019-03-10T09:05:33.405Z,1.70
2019-03-10T09:08:21.088Z,2.23
2019-03-10T09:11:06.105Z,2.40
2019-03-10T09:13:44.252Z,2.63
2019-03-10T09:16:25.349Z,2.40
2019-03-10T09:19:16.160Z,2.70
2019-03-10T09:21:57.248Z,2.33
2019-03-10T09:24:51.074Z,2.23
2019-03-10T09:27:37.078Z,3.20
2019-03-10T09:30:24.060Z,2.37
2019-03-10T09:33:07.938Z,2.40
2019-03-10T09:35:55.884Z,2.97
2019-03-10T09:38:44.220Z,2.20
2019-03-10T09:41:43.938Z,2.40
2019-03-10T09:44:35.364Z,3.10
2019-03-10T09:47:21.523Z,2.50
2019-03-10T09:49:58.231Z,2.80
2019-03-10T09:52:40.804Z,2.97
2019-03-10T09:55:27.410Z,3.07
2019-03-10T09:58:15.089Z,2.30
2019-03-10T10:00:57.794Z,2.40
2019-03-10T10:03:45.466Z,2.20
2019-03-10T10:06:34.079Z,2.70
2019-03-10T10:09:27.554Z,2.20
2019-03-10T10:12:13.928Z,2.03
2019-03-10T10:15:17.013Z,2.17
2019-03-10T10:18:03.547Z,1.80
2019-03-10T10:20:57.883Z,2.30
2019-03-10T10:23:32.390Z,2.00
2019-03-10T10:26:11.693Z,2.43
2019-03-10T10:28:56.558Z,2.20
2019-03-10T10:31:41.279Z,2.17
2019-03-10T10:34:17.326Z,2.10
2019-03-10T10:37:04.195Z,1.87
2019-03-10T10:39:48.851Z,1.80
2019-03-10T10:42:31.944Z,2.37
2019-03-10T10:45:26.695Z,2.67
2019-03-10T10:48:05.810Z,2.60
2019-03-10T10:51:11.944Z,2.33
2019-03-10T10:53:50.262Z,2.10
2019-03-10T10:56:37.895Z,2.97
2019-03-10T10:59:16.533Z,1.77
2019-03-10T11:02:07.398Z,1.20
2019-03-10T11:05:01.429Z,1.70
2019-03-10T11:07:49.766Z,2.00
2019-03-10T11:10:41.321Z,2.23
2019-03-10T11:13:22.673Z,2.30
2019-03-10T11:15:59.307Z,2.50
2019-03-10T11:18:36.989Z,1.93
2019-03-10T11:21:11.326Z,2.47
2019-03-10T11:23:47.835Z,1.60
2019-03-10T11:26:28.178Z,2.03
2019-03-10T11:29:15.315Z,1.90
2019-03-10T11:32:00.547Z,1.87
2019-03-10T11:34:37.633Z,1.60
2019-03-10T11:37:23.754Z,1.80
2019-03-10T11:40:11.405Z,1.80
2019-03-10T11:42:57.193Z,2.10
2019-03-10T11:45:39.639Z,1.70
2019-03-10T11:48:27.308Z,1.60
2019-03-10T11:51:08.237Z,1.23
2019-03-10T11:53:53.270Z,1.93
2019-03-10T11:56:38.912Z,2.43
2019-03-10T11:59:23.978Z,1.90
2019-03-10T12:02:16.290Z,2.33
2019-03-10T12:05:12.908Z,2.10
2019-03-10T12:07:51.219Z,1.83
2019-03-10T12:10:21.599Z,2.30
2019-03-10T12:12:50.426Z,2.20
2019-03-10T12:15:19.537Z,1.90
2019-03-10T12:17:48.185Z,2.10
2019-03-10T12:20:17.121Z,1.80
2019-03-10T12:22:45.764Z,1.60
2019-03-10T12:25:14.811Z,1.87
2019-03-10T12:27:43.871Z,2.23
2019-03-10T12:30:13.003Z,1.83
2019-03-10T12:32:41.996Z,2.10
2019-03-10T12:35:10.689Z,2.10
2019-03-10T12:37:39.654Z,1.67
2019-03-10T12:40:08.956Z,1.80
2019-03-10T12:42:37.585Z,2.00
2019-03-10T12:45:07.275Z,1.70
2019-03-10T12:47:35.919Z,1.67
2019-03-10T12:50:05.287Z,1.33
2019-03-10T12:52:34.562Z,2.10
2019-03-10T12:55:03.255Z,1.83
2019-03-10T12:57:32.220Z,1.67
2019-03-10T13:00:01.422Z,1.70
2019-03-10T13:02:30.311Z,1.30
2019-03-10T13:04:59.205Z,1.10
2019-03-10T13:07:28.096Z,1.60
2019-03-10T13:09:56.987Z,1.30
2019-03-10T13:12:25.978Z,2.33
2019-03-10T13:14:59.463Z,1.63
2019-03-10T13:17:25.296Z,2.10
2019-03-10T13:19:54.012Z,1.80
2019-03-10T13:22:22.976Z,1.40
2019-03-10T13:24:52.175Z,1.67
2019-03-10T13:27:21.477Z,1.70
2019-03-10T13:29:50.469Z,1.63
2019-03-10T13:32:19.116Z,2.10
2019-03-10T13:34:47.760Z,1.63
2019-03-10T13:37:16.734Z,1.43
2019-03-10T13:39:45.639Z,1.73
2019-03-10T13:42:14.551Z,1.20
2019-03-10T13:44:43.415Z,1.80
2019-03-10T13:47:12.414Z,1.30
2019-03-10T13:49:41.130Z,1.77
2019-03-10T13:52:09.821Z,1.80
2019-03-10T13:54:38.465Z,1.40
2019-03-10T13:57:07.362Z,1.33
2019-03-10T13:59:36.243Z,1.97
2019-03-10T14:02:04.979Z,1.57
2019-03-10T14:04:33.945Z,1.60
2019-03-10T14:07:03.474Z,1.90
2019-03-10T14:09:32.324Z,1.47
2019-03-10T14:12:01.212Z,1.90
2019-03-10T14:14:30.211Z,1.97
2019-03-10T14:16:59.821Z,1.47
2019-03-10T14:19:28.548Z,1.67
2019-03-10T14:21:57.596Z,2.13
2019-03-10T14:24:26.599Z,1.80
2019-03-10T14:26:55.267Z,2.10
2019-03-10T14:29:24.575Z,1.63
2019-03-10T14:31:53.590Z,1.80
2019-03-10T14:34:22.247Z,2.03
2019-03-10T14:36:51.165Z,2.03
2019-03-10T14:39:20.145Z,1.87
2019-03-10T14:41:48.818Z,1.87
2019-03-10T14:44:17.463Z,1.80
2019-03-10T14:46:47.666Z,1.90
2019-03-10T14:49:23.080Z,1.87
2019-03-10T14:51:46.957Z,1.97
2019-03-10T14:54:15.592Z,1.60
2019-03-10T14:56:44.256Z,1.97
2019-03-10T14:59:13.220Z,2.20
2019-03-10T15:01:41.902Z,2.40
2019-03-10T15:04:11.205Z,1.93
2019-03-10T15:06:40.205Z,2.20
2019-03-10T15:09:09.520Z,2.27
2019-03-10T15:11:38.148Z,1.87
2019-03-10T15:14:06.845Z,2.17
2019-03-10T15:16:35.597Z,2.50
2019-03-10T15:19:04.555Z,2.33
2019-03-10T15:21:33.852Z,2.17
2019-03-10T15:24:02.508Z,2.03
2019-03-10T15:26:31.726Z,2.10
2019-03-10T15:29:01.054Z,1.93
2019-03-10T15:31:29.982Z,2.10
2019-03-10T15:33:58.732Z,2.33
2019-03-10T15:36:29.298Z,2.07
2019-03-10T15:38:57.987Z,2.07
2019-03-10T15:41:27.256Z,2.10
2019-03-10T15:43:56.542Z,2.43
2019-03-10T15:46:25.441Z,2.87
2019-03-10T15:48:54.407Z,2.17
2019-03-10T15:51:23.423Z,2.30
2019-03-10T15:53:52.265Z,2.10
2019-03-10T15:56:20.914Z,2.63
2019-03-10T15:58:50.305Z,2.30
2019-03-10T16:01:18.965Z,2.40
2019-03-10T16:03:47.873Z,2.27
2019-03-10T16:06:16.867Z,1.87
2019-03-10T16:08:45.761Z,2.40
2019-03-10T16:11:14.631Z,3.10
2019-03-10T16:13:43.391Z,2.80
2019-03-10T16:16:12.330Z,3.07
2019-03-10T16:18:40.958Z,2.43
2019-03-10T16:21:09.921Z,3.77
2019-03-10T16:23:39.217Z,2.57
2019-03-10T16:26:07.815Z,2.13
2019-03-10T16:28:37.116Z,2.13
2019-03-10T16:31:05.982Z,2.80
2019-03-10T16:33:34.633Z,2.07
2019-03-10T16:36:03.547Z,2.50
2019-03-10T16:38:32.543Z,2.20
2019-03-10T16:41:01.184Z,3.10
2019-03-10T16:43:30.136Z,2.57
2019-03-10T16:45:58.839Z,3.20
2019-03-10T16:48:27.463Z,3.23
2019-03-10T16:50:56.095Z,2.10
2019-03-10T16:53:25.311Z,2.57
2019-03-10T16:56:02.438Z,2.70
2019-03-10T16:58:24.987Z,2.70
2019-03-10T17:00:53.617Z,2.57
2019-03-10T17:03:22.907Z,3.23
2019-03-10T17:05:51.568Z,2.50
2019-03-10T17:08:20.187Z,2.87
2019-03-10T17:10:48.887Z,3.50
2019-03-10T17:13:17.872Z,2.93
2019-03-10T17:15:46.954Z,2.93
2019-03-10T17:18:15.957Z,3.20
2019-03-10T17:20:45.355Z,3.50
2019-03-10T17:23:14.249Z,2.87
2019-03-10T17:25:43.233Z,3.03
2019-03-10T17:28:12.228Z,3.27
2019-03-10T17:30:41.058Z,2.03
2019-03-10T17:33:10.001Z,2.20
2019-03-10T17:35:38.902Z,2.40
2019-03-10T17:38:07.551Z,2.13
2019-03-10T17:40:36.581Z,2.57
2019-03-10T17:43:08.020Z,2.67
2019-03-10T17:45:37.341Z,2.53
2019-03-10T17:48:06.335Z,3.10
2019-03-10T17:50:35.230Z,4.37
2019-03-10T17:53:03.838Z,2.30
2019-03-10T17:55:32.605Z,2.50
2019-03-10T17:58:01.590Z,2.80
2019-03-10T18:00:31.094Z,2.73
2019-03-10T18:03:00.002Z,2.57
2019-03-10T18:05:28.994Z,3.57
2019-03-10T18:07:58.301Z,3.60
2019-03-10T18:10:27.171Z,3.20
2019-03-10T18:12:56.066Z,3.57
2019-03-10T18:15:25.369Z,3.20
2019-03-10T18:17:54.232Z,3.27
2019-03-10T18:20:23.263Z,3.43
2019-03-10T18:22:52.548Z,4.03
2019-03-10T18:25:21.166Z,3.00
2019-03-10T18:27:50.134Z,3.13
2019-03-10T18:30:19.021Z,2.20
2019-03-10T18:32:48.634Z,2.17
2019-03-10T18:35:17.343Z,2.30
2019-03-10T18:37:45.960Z,1.70
2019-03-10T18:40:18.547Z,2.10
2019-03-10T18:42:47.265Z,1.90
2019-03-10T18:45:17.281Z,2.30
2019-03-10T18:47:46.101Z,2.17
2019-03-10T18:50:17.951Z,2.40
2019-03-10T18:52:46.727Z,3.07
2019-03-10T18:55:15.680Z,2.97
2019-03-10T18:57:44.630Z,3.83
2019-03-10T19:00:18.652Z,2.20
2019-03-10T19:02:47.354Z,1.80
2019-03-10T19:05:16.305Z,1.77
2019-03-10T19:07:45.703Z,1.80
2019-03-10T19:10:14.439Z,1.90
2019-03-10T19:12:43.711Z,1.33
2019-03-10T19:15:14.530Z,1.70
2019-03-10T19:17:43.184Z,2.30
2019-03-10T19:20:12.499Z,2.20
2019-03-10T19:22:41.443Z,2.10
2019-03-10T19:25:11.090Z,1.67
2019-03-10T19:27:39.739Z,1.57
2019-03-10T19:30:10.524Z,1.63
2019-03-10T19:32:39.434Z,1.50
2019-03-10T19:35:08.511Z,1.30
2019-03-10T19:37:37.169Z,4.33
2019-03-10T19:40:06.825Z,1.90
2019-03-10T19:42:35.434Z,1.83
2019-03-10T19:45:04.198Z,1.50
2019-03-10T19:47:32.846Z,1.40
2019-03-10T19:50:02.086Z,2.10
2019-03-10T19:52:31.377Z,1.77
2019-03-10T19:55:00.679Z,2.40
2019-03-10T19:57:29.327Z,2.00
2019-03-10T19:59:58.262Z,1.33
2019-03-10T20:02:26.913Z,2.40
2019-03-10T20:04:56.120Z,2.00
2019-03-10T20:07:25.339Z,2.30
2019-03-10T20:09:54.002Z,1.27
2019-03-10T20:12:22.636Z,1.83
2019-03-10T20:14:51.239Z,1.70
2019-03-10T20:17:20.495Z,1.47
2019-03-10T20:19:49.146Z,1.70
2019-03-10T20:22:17.751Z,1.43
2019-03-10T20:24:46.745Z,1.67
2019-03-10T20:27:15.586Z,1.30
2019-03-10T20:29:44.179Z,1.50
2019-03-10T20:32:14.172Z,2.10
2019-03-10T20:34:43.087Z,2.40
2019-03-10T20:37:11.735Z,3.17
2019-03-10T20:39:40.623Z,2.20
2019-03-10T20:42:12.094Z,1.60
2019-03-10T20:44:40.567Z,2.17
2019-03-10T20:47:09.238Z,1.33
2019-03-10T20:49:37.875Z,1.87
2019-03-10T20:52:06.507Z,1.80
2019-03-10T20:54:35.144Z,1.50
2019-03-10T20:57:04.077Z,1.17
2019-03-10T20:59:32.997Z,1.57
2019-03-10T21:02:01.871Z,1.40
2019-03-10T21:04:30.791Z,1.60
2019-03-10T21:07:00.064Z,1.20
2019-03-10T21:09:29.055Z,1.90
2019-03-10T21:11:58.127Z,3.00
2019-03-10T21:14:26.788Z,1.40
2019-03-10T21:16:55.758Z,1.50
2019-03-10T21:19:25.168Z,2.33
2019-03-10T21:21:54.432Z,1.43
2019-03-10T21:24:23.429Z,2.00
2019-03-10T21:26:52.042Z,1.60
2019-03-10T21:29:21.317Z,2.40
2019-03-10T21:31:50.637Z,1.40
2019-03-10T21:34:19.617Z,1.33
2019-03-10T21:36:49.075Z,1.90
2019-03-10T21:39:18.008Z,2.10
2019-03-10T21:41:46.895Z,2.00
2019-03-10T21:44:25.896Z,1.87
2019-03-10T21:46:46.319Z,1.40
2019-03-10T21:49:15.208Z,1.60
2019-03-10T21:51:44.266Z,1.90
2019-03-10T21:54:13.194Z,1.40
2019-03-10T21:56:41.852Z,2.00
2019-03-10T21:59:10.606Z,1.80
2019-03-10T22:01:39.264Z,1.83
2019-03-10T22:04:07.869Z,1.63
2019-03-10T22:06:36.842Z,3.17
2019-03-10T22:09:06.543Z,1.43
2019-03-10T22:11:35.667Z,2.10
2019-03-10T22:14:04.637Z,1.67
2019-03-10T22:16:33.355Z,2.13
2019-03-10T22:19:02.313Z,1.60
2019-03-10T22:21:31.020Z,1.80
2019-03-10T22:23:59.918Z,1.83
2019-03-10T22:26:28.837Z,1.63
2019-03-10T22:28:58.351Z,1.63
2019-03-10T22:31:27.698Z,2.20
2019-03-10T22:33:56.892Z,2.60
2019-03-10T22:36:25.892Z,1.47
2019-03-10T22:38:54.830Z,1.63
2019-03-10T22:41:23.665Z,1.80
2019-03-10T22:43:52.582Z,1.60
2019-03-10T22:46:21.449Z,1.87
2019-03-10T22:48:50.450Z,2.13
2019-03-10T22:51:19.744Z,1.03
2019-03-10T22:53:48.740Z,1.80
2019-03-10T22:56:17.832Z,2.07
2019-03-10T22:58:46.827Z,1.77
2019-03-10T23:01:15.923Z,1.50
2019-03-10T23:03:44.820Z,1.37
2019-03-10T23:06:13.705Z,1.40
2019-03-10T23:08:43.019Z,1.53
2019-03-10T23:11:12.017Z,1.63
2019-03-10T23:13:41.203Z,1.40
2019-03-10T23:16:10.314Z,1.33
2019-03-10T23:18:39.290Z,1.47
2019-03-10T23:21:07.959Z,1.60
2019-03-10T23:23:36.871Z,1.60
2019-03-10T23:26:05.526Z,0.90
2019-03-10T23:28:34.858Z,1.37
2019-03-10T23:31:03.751Z,1.60
2019-03-10T23:33:32.389Z,1.50
2019-03-10T23:36:01.036Z,0.87
2019-03-10T23:38:30.028Z,1.30
2019-03-10T23:40:59.545Z,1.53
2019-03-10T23:43:28.227Z,1.67
2019-03-10T23:45:57.093Z,1.40
2019-03-10T23:48:25.689Z,1.40
2019-03-10T23:50:54.675Z,1.83
2019-03-10T23:53:23.327Z,1.30
2019-03-10T23:55:52.557Z,1.53
2019-03-10T23:58:21.209Z,1.60
